Houwa Maru — JL6394 — position and weather

sailwx.info

Track history (hours):
 
Tides and Currents Weather Stations Pressure Air Temp Water Temp Dewpoint Dewpoint Depression Visibility Wind Speed Wind Dir Waves Ship Positions

Houwa Maru

Last reported at 2017-Sep-13 08:02 UTC. Time now 2017-Sep-25 08:18 UTC.
Position N 34°58' E 139°43'.
Warning: this ship's position is 12 days out of date.

Length 76 m.

Type: Ship. MMSI: 431500378.

Date/timePositionNaut miles runAvg speedWind from/ knotsBaromVisibWave heightAir tempDewpointWater temp
2017-Sep-13 08:02N 34°58' E 139°43'211.1
2017-Sep-13 07:50N 35°01' E 139°44'411.0
2017-Sep-13 07:30N 35°04' E 139°45'510.8
2017-Sep-13 07:00N 35°10' E 139°46'510.6
2017-Sep-13 06:29N 35°15' E 139°46'511.1
2017-Sep-13 06:00N 35°20' E 139°43'611.4
2017-Sep-13 05:29N 35°25' E 139°43'4 6.9
2017-Sep-13 04:58N 35°29' E 139°41'0 0.0
2017-Sep-13 04:28N 35°29' E 139°41'0 0.0
2017-Sep-13 03:58N 35°29' E 139°41'0 0.0
2017-Sep-13 03:28N 35°29' E 139°41'0 0.0
2017-Sep-13 02:58N 35°29' E 139°41'0 0.0
2017-Sep-13 02:28N 35°29' E 139°41'0 0.0
2017-Sep-13 01:58N 35°29' E 139°41'0 0.0
2017-Sep-13 01:28N 35°29' E 139°41'0 0.0
2017-Sep-13 00:58N 35°29' E 139°41'0 0.0
2017-Sep-13 00:28N 35°29' E 139°41'0 0.0
2017-Sep-12 23:58N 35°29' E 139°41'0 0.0
2017-Sep-12 23:19N 35°29' E 139°41'0 0.9
2017-Sep-12 23:00N 35°29' E 139°41'2 2.9
2017-Sep-12 22:29N 35°27' E 139°41'2 3.1
2017-Sep-12 21:49N 35°29' E 139°39'0 0.0
2017-Sep-12 21:25N 35°29' E 139°39'0 0.0
2017-Sep-12 20:58N 35°29' E 139°39'0 0.0
2017-Sep-12 20:28N 35°29' E 139°39'0 0.0
2017-Sep-12 19:58N 35°29' E 139°39'0 0.0
2017-Sep-12 19:28N 35°29' E 139°39'0 0.0
2017-Sep-12 18:58N 35°29' E 139°39'0 0.0
2017-Sep-12 18:28N 35°29' E 139°39'0 0.0
2017-Sep-12 17:58N 35°29' E 139°39'0 0.0
2017-Sep-12 17:28N 35°29' E 139°39'0 0.0
2017-Sep-12 16:58N 35°29' E 139°39'0 0.0
2017-Sep-12 16:28N 35°29' E 139°39'0 0.0
2017-Sep-12 15:58N 35°29' E 139°39'0 0.0
2017-Sep-12 15:28N 35°29' E 139°39'0 0.0
2017-Sep-12 14:58N 35°29' E 139°39'0 0.0
2017-Sep-12 14:28N 35°29' E 139°39'0 0.0
2017-Sep-12 13:58N 35°29' E 139°39'0 0.0
2017-Sep-12 13:28N 35°29' E 139°39'0 0.0
2017-Sep-12 12:58N 35°29' E 139°39'0 0.0
2017-Sep-12 12:28N 35°29' E 139°39'0 0.0
2017-Sep-12 11:58N 35°29' E 139°39'0 0.0
2017-Sep-12 11:28N 35°29' E 139°39'0 0.0
2017-Sep-12 10:58N 35°29' E 139°39'0 0.0
2017-Sep-12 10:28N 35°29' E 139°39'0 0.0
2017-Sep-12 09:58N 35°29' E 139°39'0 0.0
2017-Sep-12 09:28N 35°29' E 139°39'0 0.0
2017-Sep-12 08:58N 35°29' E 139°39'0 0.0
2017-Sep-12 08:28N 35°29' E 139°39'0 0.0
2017-Sep-12 07:58N 35°29' E 139°39'0 0.0
2017-Sep-12 07:28N 35°29' E 139°39'0 0.0
2017-Sep-12 06:58N 35°29' E 139°39'0 0.0
2017-Sep-12 06:28N 35°29' E 139°39'0 0.0
2017-Sep-12 05:58N 35°29' E 139°39'0 0.0
2017-Sep-12 05:28N 35°29' E 139°39'0 0.0
2017-Sep-12 04:58N 35°29' E 139°39'0 0.0
2017-Sep-12 04:28N 35°29' E 139°39'0 0.0
2017-Sep-12 03:58N 35°29' E 139°39'0 0.0
2017-Sep-12 03:28N 35°29' E 139°39'0 0.0
2017-Sep-12 02:58N 35°29' E 139°39'0 0.0
2017-Sep-12 02:28N 35°29' E 139°39'0 0.0
2017-Sep-12 01:58N 35°29' E 139°39'0 0.0
2017-Sep-12 01:28N 35°29' E 139°39'0 0.0
2017-Sep-12 00:58N 35°29' E 139°39'0 0.0
2017-Sep-12 00:28N 35°29' E 139°39'0 0.0
2017-Sep-11 23:58N 35°29' E 139°39'0 0.0
2017-Sep-11 23:28N 35°29' E 139°39'0 0.1
2017-Sep-11 23:00N 35°29' E 139°39'4 8.1
2017-Sep-11 22:30N 35°26' E 139°43'0 0.3
2017-Sep-11 21:59N 35°26' E 139°43'0 0.0
2017-Sep-11 21:29N 35°26' E 139°43'0 0.0
2017-Sep-11 20:59N 35°26' E 139°43'0 0.0
2017-Sep-11 20:29N 35°26' E 139°43'0 0.0
2017-Sep-11 19:59N 35°26' E 139°43'0 0.0
2017-Sep-11 19:29N 35°27' E 139°43'0 0.0
2017-Sep-11 18:59N 35°27' E 139°43'0 0.0
2017-Sep-11 18:29N 35°27' E 139°43'0 0.0
2017-Sep-11 17:59N 35°27' E 139°43'0 0.0
2017-Sep-11 17:29N 35°27' E 139°43'0 0.0
2017-Sep-11 16:59N 35°26' E 139°43'0 0.0
2017-Sep-11 16:29N 35°26' E 139°43'0 0.1
2017-Sep-11 15:59N 35°26' E 139°43'0 0.1
2017-Sep-11 15:29N 35°26' E 139°43'0 0.0
2017-Sep-11 14:59N 35°27' E 139°43'0 0.0
2017-Sep-11 14:29N 35°26' E 139°43'0 0.1
2017-Sep-11 13:56N 35°27' E 139°43'0 0.0
2017-Sep-11 13:14N 35°26' E 139°43'0 0.0
2017-Sep-11 12:56N 35°26' E 139°43'0 0.0
2017-Sep-11 12:29N 35°27' E 139°43'0 0.0
2017-Sep-11 11:59N 35°26' E 139°43'0 0.0
2017-Sep-11 11:29N 35°26' E 139°43'0 0.0
2017-Sep-11 10:59N 35°26' E 139°43'0 0.0
2017-Sep-11 10:29N 35°26' E 139°43'0 0.1
2017-Sep-11 09:59N 35°26' E 139°43'0 0.1
2017-Sep-11 09:29N 35°27' E 139°43'0 0.0
2017-Sep-11 08:59N 35°27' E 139°43'0 0.0
2017-Sep-11 08:29N 35°27' E 139°43'0 0.0
2017-Sep-11 07:59N 35°27' E 139°43'0 1.0
2017-Sep-11 07:30N 35°26' E 139°43'611.6
2017-Sep-11 06:57N 35°20' E 139°43'1011.3
2017-Sep-11 06:03N 35°10' E 139°46'111.7
2017-Sep-11 05:59N 35°09' E 139°46'611.4
2017-Sep-11 05:29N 35°03' E 139°45'  
2017-Sep-08 11:31N 34°59' E 139°44'010.9
2017-Sep-08 11:29N 34°60' E 139°44'510.4
2017-Sep-08 11:00N 35°05' E 139°45'5 9.6
2017-Sep-08 10:28N 35°10' E 139°46'610.9
2017-Sep-08 09:56N 35°15' E 139°46'510.8
2017-Sep-08 09:26N 35°20' E 139°43'510.4
2017-Sep-08 08:59N 35°25' E 139°43'510.5
2017-Sep-08 08:30N 35°28' E 139°48'3 6.0
2017-Sep-08 07:59N 35°31' E 139°45'0 0.0
2017-Sep-08 07:29N 35°31' E 139°45'0 0.0
2017-Sep-08 06:59N 35°31' E 139°45'0 0.0
2017-Sep-08 06:29N 35°31' E 139°45'0 0.0
2017-Sep-08 05:47N 35°31' E 139°45'0 0.0
2017-Sep-08 05:29N 35°31' E 139°45'0 0.0
2017-Sep-08 04:56N 35°31' E 139°45'0 0.0
2017-Sep-08 04:23N 35°31' E 139°45'0 0.0
2017-Sep-08 03:59N 35°31' E 139°45'0 0.0
2017-Sep-08 03:29N 35°31' E 139°45'0 0.0
2017-Sep-08 02:59N 35°31' E 139°45'0 0.0
2017-Sep-08 02:29N 35°31' E 139°45'0 0.0
2017-Sep-08 01:59N 35°31' E 139°45'0 0.0
2017-Sep-08 01:29N 35°31' E 139°45'0 0.0
2017-Sep-08 00:59N 35°31' E 139°45'0 0.0
2017-Sep-08 00:29N 35°31' E 139°45'0 0.0
2017-Sep-07 23:59N 35°31' E 139°45'0 0.0
2017-Sep-07 23:29N 35°31' E 139°45'0 0.0
2017-Sep-07 22:59N 35°31' E 139°45'0 0.0
2017-Sep-07 22:29N 35°31' E 139°45'0 0.0
2017-Sep-07 21:59N 35°31' E 139°45'0 0.0
2017-Sep-07 21:29N 35°31' E 139°45'3 6.7
2017-Sep-07 21:00N 35°29' E 139°48'0 0.6
2017-Sep-07 20:28N 35°28' E 139°48'0 0.0
2017-Sep-07 19:58N 35°28' E 139°48'0 0.0
2017-Sep-07 19:28N 35°28' E 139°48'0 0.0
2017-Sep-07 18:55N 35°28' E 139°48'0 0.0
2017-Sep-07 18:28N 35°28' E 139°48'0 0.0
2017-Sep-07 17:58N 35°28' E 139°48'0 0.0
2017-Sep-07 17:28N 35°28' E 139°48'0 0.0
2017-Sep-07 16:58N 35°28' E 139°48'1 1.1
2017-Sep-07 16:30N 35°28' E 139°48'711.1
2017-Sep-07 15:55N 35°22' E 139°45'410.3
2017-Sep-07 15:29N 35°17' E 139°45'6 9.8
2017-Sep-07 14:53N 35°12' E 139°47'410.5
2017-Sep-07 14:30N 35°08' E 139°46'510.4
2017-Sep-07 14:00N 35°04' E 139°42'611.8
2017-Sep-07 13:30N 35°00' E 139°36'712.4
2017-Sep-07 12:58N 34°57' E 139°29'220 8.6
2017-Sep-06 11:20N 34°32' E 135°03'3 9.1
2017-Sep-06 11:00N 34°35' E 135°03'3 0.1
2017-Sep-05 05:51N 34°35' E 135°07'  
Track history (hours):
 
Tides and Currents Weather Stations Pressure Air Temp Water Temp Dewpoint Dewpoint Depression Visibility Wind Speed Wind Dir Waves Ship Positions

Houwa Maru

Last reported at 2017-Sep-13 08:02 UTC. Time now 2017-Sep-25 08:18 UTC.
Position N 34°58' E 139°43'.
Warning: this ship's position is 12 days out of date.

Length 76 m.

Type: Ship. MMSI: 431500378.

Date/timePositionNaut miles runAvg speedWind from/ knotsBaromVisibWave heightAir tempDewpointWater temp
2017-Sep-13 08:02N 34°58' E 139°43'211.1
2017-Sep-13 07:50N 35°01' E 139°44'411.0
2017-Sep-13 07:30N 35°04' E 139°45'510.8
2017-Sep-13 07:00N 35°10' E 139°46'510.6
2017-Sep-13 06:29N 35°15' E 139°46'511.1
2017-Sep-13 06:00N 35°20' E 139°43'611.4
2017-Sep-13 05:29N 35°25' E 139°43'4 6.9
2017-Sep-13 04:58N 35°29' E 139°41'0 0.0
2017-Sep-13 04:28N 35°29' E 139°41'0 0.0
2017-Sep-13 03:58N 35°29' E 139°41'0 0.0
2017-Sep-13 03:28N 35°29' E 139°41'0 0.0
2017-Sep-13 02:58N 35°29' E 139°41'0 0.0
2017-Sep-13 02:28N 35°29' E 139°41'0 0.0
2017-Sep-13 01:58N 35°29' E 139°41'0 0.0
2017-Sep-13 01:28N 35°29' E 139°41'0 0.0
2017-Sep-13 00:58N 35°29' E 139°41'0 0.0
2017-Sep-13 00:28N 35°29' E 139°41'0 0.0
2017-Sep-12 23:58N 35°29' E 139°41'0 0.0
2017-Sep-12 23:19N 35°29' E 139°41'0 0.9
2017-Sep-12 23:00N 35°29' E 139°41'2 2.9
2017-Sep-12 22:29N 35°27' E 139°41'2 3.1
2017-Sep-12 21:49N 35°29' E 139°39'0 0.0
2017-Sep-12 21:25N 35°29' E 139°39'0 0.0
2017-Sep-12 20:58N 35°29' E 139°39'0 0.0
2017-Sep-12 20:28N 35°29' E 139°39'0 0.0
2017-Sep-12 19:58N 35°29' E 139°39'0 0.0
2017-Sep-12 19:28N 35°29' E 139°39'0 0.0
2017-Sep-12 18:58N 35°29' E 139°39'0 0.0
2017-Sep-12 18:28N 35°29' E 139°39'0 0.0
2017-Sep-12 17:58N 35°29' E 139°39'0 0.0
2017-Sep-12 17:28N 35°29' E 139°39'0 0.0
2017-Sep-12 16:58N 35°29' E 139°39'0 0.0
2017-Sep-12 16:28N 35°29' E 139°39'0 0.0
2017-Sep-12 15:58N 35°29' E 139°39'0 0.0
2017-Sep-12 15:28N 35°29' E 139°39'0 0.0
2017-Sep-12 14:58N 35°29' E 139°39'0 0.0
2017-Sep-12 14:28N 35°29' E 139°39'0 0.0
2017-Sep-12 13:58N 35°29' E 139°39'0 0.0
2017-Sep-12 13:28N 35°29' E 139°39'0 0.0
2017-Sep-12 12:58N 35°29' E 139°39'0 0.0
2017-Sep-12 12:28N 35°29' E 139°39'0 0.0
2017-Sep-12 11:58N 35°29' E 139°39'0 0.0
2017-Sep-12 11:28N 35°29' E 139°39'0 0.0
2017-Sep-12 10:58N 35°29' E 139°39'0 0.0
2017-Sep-12 10:28N 35°29' E 139°39'0 0.0
2017-Sep-12 09:58N 35°29' E 139°39'0 0.0
2017-Sep-12 09:28N 35°29' E 139°39'0 0.0
2017-Sep-12 08:58N 35°29' E 139°39'0 0.0
2017-Sep-12 08:28N 35°29' E 139°39'0 0.0
2017-Sep-12 07:58N 35°29' E 139°39'0 0.0
2017-Sep-12 07:28N 35°29' E 139°39'0 0.0
2017-Sep-12 06:58N 35°29' E 139°39'0 0.0
2017-Sep-12 06:28N 35°29' E 139°39'0 0.0
2017-Sep-12 05:58N 35°29' E 139°39'0 0.0
2017-Sep-12 05:28N 35°29' E 139°39'0 0.0
2017-Sep-12 04:58N 35°29' E 139°39'0 0.0
2017-Sep-12 04:28N 35°29' E 139°39'0 0.0
2017-Sep-12 03:58N 35°29' E 139°39'0 0.0
2017-Sep-12 03:28N 35°29' E 139°39'0 0.0
2017-Sep-12 02:58N 35°29' E 139°39'0 0.0
2017-Sep-12 02:28N 35°29' E 139°39'0 0.0
2017-Sep-12 01:58N 35°29' E 139°39'0 0.0
2017-Sep-12 01:28N 35°29' E 139°39'0 0.0
2017-Sep-12 00:58N 35°29' E 139°39'0 0.0
2017-Sep-12 00:28N 35°29' E 139°39'0 0.0
2017-Sep-11 23:58N 35°29' E 139°39'0 0.0
2017-Sep-11 23:28N 35°29' E 139°39'0 0.1
2017-Sep-11 23:00N 35°29' E 139°39'4 8.1
2017-Sep-11 22:30N 35°26' E 139°43'0 0.3
2017-Sep-11 21:59N 35°26' E 139°43'0 0.0
2017-Sep-11 21:29N 35°26' E 139°43'0 0.0
2017-Sep-11 20:59N 35°26' E 139°43'0 0.0
2017-Sep-11 20:29N 35°26' E 139°43'0 0.0
2017-Sep-11 19:59N 35°26' E 139°43'0 0.0
2017-Sep-11 19:29N 35°27' E 139°43'0 0.0
2017-Sep-11 18:59N 35°27' E 139°43'0 0.0
2017-Sep-11 18:29N 35°27' E 139°43'0 0.0
2017-Sep-11 17:59N 35°27' E 139°43'0 0.0
2017-Sep-11 17:29N 35°27' E 139°43'0 0.0
2017-Sep-11 16:59N 35°26' E 139°43'0 0.0
2017-Sep-11 16:29N 35°26' E 139°43'0 0.1
2017-Sep-11 15:59N 35°26' E 139°43'0 0.1
2017-Sep-11 15:29N 35°26' E 139°43'0 0.0
2017-Sep-11 14:59N 35°27' E 139°43'0 0.0
2017-Sep-11 14:29N 35°26' E 139°43'0 0.1
2017-Sep-11 13:56N 35°27' E 139°43'0 0.0
2017-Sep-11 13:14N 35°26' E 139°43'0 0.0
2017-Sep-11 12:56N 35°26' E 139°43'0 0.0
2017-Sep-11 12:29N 35°27' E 139°43'0 0.0
2017-Sep-11 11:59N 35°26' E 139°43'0 0.0
2017-Sep-11 11:29N 35°26' E 139°43'0 0.0
2017-Sep-11 10:59N 35°26' E 139°43'0 0.0
2017-Sep-11 10:29N 35°26' E 139°43'0 0.1
2017-Sep-11 09:59N 35°26' E 139°43'0 0.1
2017-Sep-11 09:29N 35°27' E 139°43'0 0.0
2017-Sep-11 08:59N 35°27' E 139°43'0 0.0
2017-Sep-11 08:29N 35°27' E 139°43'0 0.0
2017-Sep-11 07:59N 35°27' E 139°43'0 1.0
2017-Sep-11 07:30N 35°26' E 139°43'611.6
2017-Sep-11 06:57N 35°20' E 139°43'1011.3
2017-Sep-11 06:03N 35°10' E 139°46'111.7
2017-Sep-11 05:59N 35°09' E 139°46'611.4
2017-Sep-11 05:29N 35°03' E 139°45'  
2017-Sep-08 11:31N 34°59' E 139°44'010.9
2017-Sep-08 11:29N 34°60' E 139°44'510.4
2017-Sep-08 11:00N 35°05' E 139°45'5 9.6
2017-Sep-08 10:28N 35°10' E 139°46'610.9
2017-Sep-08 09:56N 35°15' E 139°46'510.8
2017-Sep-08 09:26N 35°20' E 139°43'510.4
2017-Sep-08 08:59N 35°25' E 139°43'510.5
2017-Sep-08 08:30N 35°28' E 139°48'3 6.0
2017-Sep-08 07:59N 35°31' E 139°45'0 0.0
2017-Sep-08 07:29N 35°31' E 139°45'0 0.0
2017-Sep-08 06:59N 35°31' E 139°45'0 0.0
2017-Sep-08 06:29N 35°31' E 139°45'0 0.0
2017-Sep-08 05:47N 35°31' E 139°45'0 0.0
2017-Sep-08 05:29N 35°31' E 139°45'0 0.0
2017-Sep-08 04:56N 35°31' E 139°45'0 0.0
2017-Sep-08 04:23N 35°31' E 139°45'0 0.0
2017-Sep-08 03:59N 35°31' E 139°45'0 0.0
2017-Sep-08 03:29N 35°31' E 139°45'0 0.0
2017-Sep-08 02:59N 35°31' E 139°45'0 0.0
2017-Sep-08 02:29N 35°31' E 139°45'0 0.0
2017-Sep-08 01:59N 35°31' E 139°45'0 0.0
2017-Sep-08 01:29N 35°31' E 139°45'0 0.0
2017-Sep-08 00:59N 35°31' E 139°45'0 0.0
2017-Sep-08 00:29N 35°31' E 139°45'0 0.0
2017-Sep-07 23:59N 35°31' E 139°45'0 0.0
2017-Sep-07 23:29N 35°31' E 139°45'0 0.0
2017-Sep-07 22:59N 35°31' E 139°45'0 0.0
2017-Sep-07 22:29N 35°31' E 139°45'0 0.0
2017-Sep-07 21:59N 35°31' E 139°45'0 0.0
2017-Sep-07 21:29N 35°31' E 139°45'3 6.7
2017-Sep-07 21:00N 35°29' E 139°48'0 0.6
2017-Sep-07 20:28N 35°28' E 139°48'0 0.0
2017-Sep-07 19:58N 35°28' E 139°48'0 0.0
2017-Sep-07 19:28N 35°28' E 139°48'0 0.0
2017-Sep-07 18:55N 35°28' E 139°48'0 0.0
2017-Sep-07 18:28N 35°28' E 139°48'0 0.0
2017-Sep-07 17:58N 35°28' E 139°48'0 0.0
2017-Sep-07 17:28N 35°28' E 139°48'0 0.0
2017-Sep-07 16:58N 35°28' E 139°48'1 1.1
2017-Sep-07 16:30N 35°28' E 139°48'711.1
2017-Sep-07 15:55N 35°22' E 139°45'410.3
2017-Sep-07 15:29N 35°17' E 139°45'6 9.8
2017-Sep-07 14:53N 35°12' E 139°47'410.5
2017-Sep-07 14:30N 35°08' E 139°46'510.4
2017-Sep-07 14:00N 35°04' E 139°42'611.8
2017-Sep-07 13:30N 35°00' E 139°36'712.4
2017-Sep-07 12:58N 34°57' E 139°29'220 8.6
2017-Sep-06 11:20N 34°32' E 135°03'3 9.1
2017-Sep-06 11:00N 34°35' E 135°03'3 0.1
2017-Sep-05 05:51N 34°35' E 135°07'  

Dump ship's entire track history